Terminal Aerodrome Forecast
Issued by NWS Cleveland, OH

Home | Current Version | Previous Version | Graphics & Text | Print | Product List | Glossary On
Versions: 1 2 3 4 5 6 7 8 9 10 11 12 13 14 15 16 17 18 19 20 21 22
921
FTUS41 KCLE 290238 AAC
TAFTOL
TAF AMD
KTOL 290238Z 2903/2924 08004KT P6SM BKN050 BKN200
      TEMPO 2903/2904 4SM SHRA OVC050
     FM290400 VRB02KT P6SM VCSH BKN200
     FM290600 VRB02KT P6SM BKN200
      TEMPO 2906/2908 5SM BR
     FM290800 VRB02KT 4SM BR BKN200
     FM291300 04005KT 6SM HZ SCT045 BKN120
     FM291700 06006KT P6SM VCTS BKN045CB=

USA.gov is the U.S. government's official web portal to all federal, state and local government web resources and services.